createdAt,value
2022-11-29T00:01:43.364Z,3.90
2022-11-29T00:04:09.810Z,4.15
2022-11-29T00:06:37.599Z,4.68
2022-11-29T00:09:08.542Z,4.68
2022-11-29T00:11:54.299Z,4.40
2022-11-29T00:14:21.536Z,3.92
2022-11-29T00:16:52.634Z,4.45
2022-11-29T00:19:19.107Z,4.32
2022-11-29T00:21:45.568Z,4.43
2022-11-29T00:24:11.875Z,4.72
2022-11-29T00:26:38.421Z,3.83
2022-11-29T00:29:04.649Z,4.55
2022-11-29T00:31:31.846Z,4.32
2022-11-29T00:33:59.209Z,4.35
2022-11-29T00:36:25.829Z,4.63
2022-11-29T00:38:52.106Z,3.80
2022-11-29T00:41:18.369Z,4.25
2022-11-29T00:43:44.687Z,4.70
2022-11-29T00:46:11.164Z,4.35
2022-11-29T00:48:37.409Z,4.43
2022-11-29T00:51:04.450Z,3.92
2022-11-29T00:53:31.057Z,4.50
2022-11-29T00:55:57.313Z,4.55
2022-11-29T00:58:23.750Z,4.13
2022-11-29T01:00:50.003Z,4.82
2022-11-29T01:03:16.851Z,4.45
2022-11-29T01:05:43.435Z,4.05
2022-11-29T01:08:10.532Z,4.70
2022-11-29T01:10:36.777Z,4.32
2022-11-29T01:13:03.010Z,4.28
2022-11-29T01:15:29.394Z,4.72
2022-11-29T01:17:55.686Z,4.38
2022-11-29T01:20:22.021Z,4.60
2022-11-29T01:22:48.655Z,4.68
2022-11-29T01:25:15.037Z,4.20
2022-11-29T01:27:41.571Z,4.22
2022-11-29T01:30:08.862Z,4.50
2022-11-29T01:32:35.438Z,4.55
2022-11-29T01:35:01.954Z,4.32
2022-11-29T01:37:28.702Z,4.72
2022-11-29T01:39:55.000Z,4.50
2022-11-29T01:42:21.249Z,4.50
2022-11-29T01:44:50.554Z,4.22
2022-11-29T01:47:18.120Z,4.75
2022-11-29T01:49:45.855Z,4.80
2022-11-29T01:52:27.266Z,4.90
2022-11-29T01:54:55.898Z,4.18
2022-11-29T01:57:22.206Z,3.80
2022-11-29T01:59:50.025Z,3.95
2022-11-29T02:02:27.196Z,3.80
2022-11-29T02:04:53.575Z,4.07
2022-11-29T02:07:19.870Z,4.32
2022-11-29T02:09:46.182Z,3.75
2022-11-29T02:12:21.220Z,4.15
2022-11-29T02:14:47.799Z,4.28
2022-11-29T02:17:32.788Z,4.68
2022-11-29T02:20:17.773Z,4.55
2022-11-29T02:22:53.180Z,4.72
2022-11-29T02:25:38.576Z,4.63
2022-11-29T02:28:04.787Z,4.50
2022-11-29T02:30:46.560Z,4.28
2022-11-29T02:33:18.607Z,4.57
2022-11-29T02:35:51.022Z,4.35
2022-11-29T02:38:23.473Z,4.10
2022-11-29T02:40:52.749Z,4.18
2022-11-29T02:43:22.082Z,4.03
2022-11-29T02:45:48.388Z,4.85
2022-11-29T02:48:17.762Z,4.30
2022-11-29T02:50:49.888Z,5.22
2022-11-29T02:53:24.687Z,4.68
2022-11-29T02:55:50.915Z,4.25
2022-11-29T02:58:38.134Z,4.55
2022-11-29T03:01:04.511Z,4.57
2022-11-29T03:03:35.592Z,4.60
2022-11-29T03:06:04.814Z,4.03
2022-11-29T03:08:51.314Z,4.55
2022-11-29T03:11:28.018Z,4.32
2022-11-29T03:14:09.388Z,4.95
2022-11-29T03:16:43.044Z,4.05
2022-11-29T03:19:12.597Z,4.88
2022-11-29T03:21:57.754Z,4.75
2022-11-29T03:24:28.884Z,4.78
2022-11-29T03:26:59.495Z,5.03
2022-11-29T03:29:37.832Z,4.78
2022-11-29T03:32:11.062Z,4.40
2022-11-29T03:34:57.577Z,4.25
2022-11-29T03:37:37.730Z,4.75
2022-11-29T03:40:09.050Z,4.78
2022-11-29T03:42:38.466Z,5.03
2022-11-29T03:45:07.660Z,4.90
2022-11-29T03:47:36.725Z,5.10
2022-11-29T03:50:07.835Z,4.78
2022-11-29T03:52:38.285Z,4.30
2022-11-29T03:55:19.910Z,4.70
2022-11-29T03:57:49.026Z,5.32
2022-11-29T04:00:15.891Z,5.45
2022-11-29T04:02:56.470Z,5.30
2022-11-29T04:05:34.535Z,4.25
2022-11-29T04:08:06.808Z,4.85
2022-11-29T04:10:45.306Z,4.45
2022-11-29T04:13:30.479Z,5.28
2022-11-29T04:16:14.281Z,4.72
2022-11-29T04:18:52.855Z,5.15
2022-11-29T04:21:33.142Z,4.90
2022-11-29T04:23:59.920Z,4.93
2022-11-29T04:26:35.116Z,4.70
2022-11-29T04:29:15.314Z,4.63
2022-11-29T04:31:55.072Z,5.03
2022-11-29T04:34:36.459Z,5.05
2022-11-29T04:37:21.622Z,4.25
2022-11-29T04:40:00.157Z,5.25
2022-11-29T04:42:29.443Z,5.47
2022-11-29T04:45:07.951Z,4.70
2022-11-29T04:47:46.292Z,4.97
2022-11-29T04:50:37.457Z,4.78
2022-11-29T04:53:12.905Z,4.70
2022-11-29T04:55:56.819Z,4.25
2022-11-29T04:58:31.912Z,4.63
2022-11-29T05:01:02.083Z,4.10
2022-11-29T05:03:35.652Z,4.22
2022-11-29T05:06:07.798Z,4.38
2022-11-29T05:08:37.092Z,3.97
2022-11-29T05:11:26.640Z,4.80
2022-11-29T05:13:53.201Z,4.60
2022-11-29T05:16:28.711Z,4.72
2022-11-29T05:19:08.130Z,4.53
2022-11-29T05:21:43.777Z,4.60
2022-11-29T05:24:28.543Z,4.83
2022-11-29T05:27:00.891Z,5.00
2022-11-29T05:29:34.012Z,4.43
2022-11-29T05:32:14.955Z,4.65
2022-11-29T05:34:41.161Z,4.85
2022-11-29T05:37:13.556Z,4.45
2022-11-29T05:39:58.148Z,4.80
2022-11-29T05:42:24.411Z,4.30
2022-11-29T05:44:57.156Z,4.63
2022-11-29T05:47:31.789Z,4.90
2022-11-29T05:49:58.073Z,4.20
2022-11-29T05:52:43.789Z,4.40
2022-11-29T05:55:18.012Z,4.20
2022-11-29T05:58:02.367Z,4.20
2022-11-29T06:00:34.750Z,3.47
2022-11-29T06:03:07.332Z,4.50
2022-11-29T06:05:40.326Z,3.60
2022-11-29T06:08:21.927Z,4.60
2022-11-29T06:11:11.530Z,3.85
2022-11-29T06:13:56.720Z,4.18
2022-11-29T06:16:29.088Z,4.25
2022-11-29T06:18:58.792Z,4.10
2022-11-29T06:21:45.970Z,3.92
2022-11-29T06:24:25.524Z,3.47
2022-11-29T06:27:11.198Z,5.22
2022-11-29T06:29:46.562Z,4.25
2022-11-29T06:32:32.329Z,4.78
2022-11-29T06:35:09.448Z,6.40
2022-11-29T06:37:40.732Z,5.90
2022-11-29T06:40:10.533Z,6.22
2022-11-29T06:42:36.757Z,6.38
2022-11-29T06:45:03.535Z,7.15
2022-11-29T06:47:35.879Z,7.50
2022-11-29T06:50:21.069Z,7.18
2022-11-29T06:52:55.179Z,7.38
2022-11-29T06:55:28.072Z,8.02
2022-11-29T06:58:06.084Z,6.85
2022-11-29T07:00:50.783Z,7.18
2022-11-29T07:03:26.281Z,8.23
2022-11-29T07:05:52.759Z,8.05
2022-11-29T07:08:20.833Z,8.27
2022-11-29T07:10:50.010Z,7.88
2022-11-29T07:13:17.578Z,9.70
2022-11-29T07:16:02.751Z,8.00
2022-11-29T07:18:42.631Z,7.88
2022-11-29T07:21:08.874Z,8.07
2022-11-29T07:23:35.190Z,8.18
2022-11-29T07:26:24.631Z,8.38
2022-11-29T07:29:00.140Z,9.35
2022-11-29T07:31:35.851Z,8.63
2022-11-29T07:34:11.016Z,8.02
2022-11-29T07:36:56.720Z,7.72
2022-11-29T07:39:34.191Z,7.47
2022-11-29T07:42:15.487Z,8.02
2022-11-29T07:44:44.960Z,8.02
2022-11-29T07:47:11.383Z,8.55
2022-11-29T07:49:37.714Z,9.00
2022-11-29T07:52:04.014Z,8.93
2022-11-29T07:54:30.372Z,7.88
2022-11-29T07:56:56.728Z,8.02
2022-11-29T07:59:23.263Z,7.47
2022-11-29T08:01:49.624Z,7.65
2022-11-29T08:04:15.950Z,9.52
2022-11-29T08:06:42.241Z,9.13
2022-11-29T08:09:08.546Z,8.40
2022-11-29T08:11:35.023Z,10.23
2022-11-29T08:14:03.000Z,10.55
2022-11-29T08:16:29.451Z,8.98
2022-11-29T08:18:55.905Z,8.68
2022-11-29T08:21:22.347Z,9.20
2022-11-29T08:23:49.397Z,9.77
2022-11-29T08:26:16.344Z,10.05
2022-11-29T08:28:42.717Z,10.10
2022-11-29T08:31:10.291Z,9.00
2022-11-29T08:33:37.592Z,12.10
2022-11-29T08:36:07.584Z,11.55
2022-11-29T08:38:33.843Z,9.50
2022-11-29T08:41:01.159Z,11.48
2022-11-29T08:43:27.430Z,11.05
2022-11-29T08:45:53.754Z,10.90
2022-11-29T08:48:20.015Z,9.63
2022-11-29T08:50:48.711Z,11.43
2022-11-29T08:53:33.730Z,10.32
2022-11-29T08:56:00.285Z,10.85
2022-11-29T08:58:26.924Z,10.43
2022-11-29T09:00:53.276Z,10.52
2022-11-29T09:03:38.453Z,8.80
2022-11-29T09:06:12.168Z,9.82
2022-11-29T09:08:38.869Z,9.27
2022-11-29T09:11:09.091Z,11.60
2022-11-29T09:13:35.549Z,11.20
2022-11-29T09:16:06.701Z,10.20
2022-11-29T09:18:33.027Z,11.63
2022-11-29T09:20:59.484Z,11.77
2022-11-29T09:23:25.790Z,14.55
2022-11-29T09:25:52.125Z,14.88
2022-11-29T09:28:18.552Z,14.20
2022-11-29T09:30:44.858Z,14.60
2022-11-29T09:33:11.171Z,14.93
2022-11-29T09:35:37.480Z,15.85
2022-11-29T09:38:04.196Z,14.45
2022-11-29T09:40:37.291Z,14.00
2022-11-29T09:43:13.985Z,13.25
2022-11-29T09:45:42.586Z,14.10
2022-11-29T09:48:08.899Z,12.82
2022-11-29T09:50:43.894Z,12.25
2022-11-29T09:53:27.874Z,13.10
2022-11-29T09:56:10.064Z,12.82
2022-11-29T09:58:51.879Z,13.68
2022-11-29T10:01:24.688Z,14.07
2022-11-29T10:03:53.251Z,13.35
2022-11-29T10:06:27.598Z,13.43
2022-11-29T10:08:57.356Z,12.32
2022-11-29T10:11:28.410Z,12.95
2022-11-29T10:13:57.929Z,12.90
2022-11-29T10:16:31.688Z,13.27
2022-11-29T10:19:03.666Z,12.32
2022-11-29T10:21:34.256Z,14.07
2022-11-29T10:24:15.458Z,14.23
2022-11-29T10:26:43.427Z,14.50
2022-11-29T10:29:13.952Z,15.35
2022-11-29T10:31:43.920Z,15.40
2022-11-29T10:34:13.007Z,15.48
2022-11-29T10:36:44.540Z,13.93
2022-11-29T10:39:20.931Z,15.93
2022-11-29T10:44:14.531Z,13.95
2022-11-29T10:46:41.202Z,14.35
2022-11-29T10:49:12.048Z,15.15
2022-11-29T10:51:39.012Z,14.15
2022-11-29T10:54:24.032Z,13.32
2022-11-29T10:56:51.249Z,14.20
2022-11-29T10:59:24.827Z,14.93
2022-11-29T11:01:51.755Z,14.18
2022-11-29T11:04:32.577Z,13.02
2022-11-29T11:07:01.267Z,12.80
2022-11-29T11:10:03.159Z,12.55
2022-11-29T11:12:30.803Z,13.50
2022-11-29T11:15:13.719Z,13.18
2022-11-29T11:17:42.215Z,15.20
2022-11-29T11:20:13.560Z,13.88
2022-11-29T11:22:40.617Z,13.20
2022-11-29T11:25:27.176Z,12.15
2022-11-29T11:27:54.026Z,12.95
2022-11-29T11:30:21.578Z,12.85
2022-11-29T11:33:26.265Z,11.45
2022-11-29T11:36:00.819Z,12.77
2022-11-29T11:38:27.488Z,12.80
2022-11-29T11:41:11.815Z,12.02
2022-11-29T11:43:39.295Z,12.85
2022-11-29T11:46:08.140Z,13.55
2022-11-29T11:48:34.969Z,12.85
2022-11-29T11:51:01.623Z,12.85
2022-11-29T11:53:35.634Z,13.98
2022-11-29T11:56:04.058Z,12.70
2022-11-29T11:58:39.330Z,13.32
2022-11-29T12:01:13.649Z,12.15
2022-11-29T12:03:49.733Z,11.80
2022-11-29T12:06:18.864Z,11.50
2022-11-29T12:08:46.188Z,12.40
2022-11-29T12:11:14.637Z,13.68
2022-11-29T12:13:43.779Z,12.27
2022-11-29T12:16:14.522Z,11.73
2022-11-29T12:18:44.066Z,13.52
2022-11-29T12:21:10.284Z,12.60
2022-11-29T12:23:49.551Z,11.85
2022-11-29T12:26:48.964Z,11.07
2022-11-29T12:29:14.147Z,12.27
2022-11-29T12:31:55.186Z,11.82
2022-11-29T12:34:22.744Z,11.00
2022-11-29T12:36:57.400Z,12.50
2022-11-29T12:39:23.651Z,11.43
2022-11-29T12:41:59.241Z,11.77
2022-11-29T12:44:28.248Z,11.23
2022-11-29T12:47:28.165Z,10.75
2022-11-29T12:50:07.217Z,11.20
2022-11-29T12:52:52.399Z,13.20
2022-11-29T12:55:18.723Z,13.18
2022-11-29T12:58:14.738Z,13.07
2022-11-29T13:00:46.406Z,12.50
2022-11-29T13:03:31.578Z,14.38
2022-11-29T13:06:07.578Z,12.90
2022-11-29T13:08:44.191Z,12.93
2022-11-29T13:11:14.113Z,13.63
2022-11-29T13:13:50.239Z,14.02
2022-11-29T13:16:30.814Z,14.48
2022-11-29T13:19:16.619Z,13.55
2022-11-29T13:22:09.303Z,12.93
2022-11-29T13:24:44.146Z,12.65
2022-11-29T13:27:14.784Z,11.82
2022-11-29T13:29:41.124Z,12.38
2022-11-29T13:32:14.286Z,13.70
2022-11-29T13:34:45.332Z,14.13
2022-11-29T13:37:14.905Z,13.20
2022-11-29T13:39:41.158Z,13.70
2022-11-29T13:42:15.284Z,13.30
2022-11-29T13:44:56.254Z,13.55
2022-11-29T13:47:22.583Z,12.80
2022-11-29T13:50:04.301Z,12.70
2022-11-29T13:52:34.965Z,12.70
2022-11-29T13:55:06.589Z,12.65
2022-11-29T13:58:14.995Z,12.40
2022-11-29T14:00:37.676Z,12.45
2022-11-29T14:03:22.539Z,11.63
2022-11-29T14:05:53.261Z,11.98
2022-11-29T14:08:23.838Z,11.07
2022-11-29T14:10:51.453Z,11.52
2022-11-29T14:13:17.769Z,10.00
2022-11-29T14:15:44.416Z,10.23
2022-11-29T14:18:46.426Z,10.13
2022-11-29T14:21:12.748Z,9.40
2022-11-29T14:23:40.605Z,10.35
2022-11-29T14:26:06.946Z,10.27
2022-11-29T14:28:38.599Z,10.13
2022-11-29T14:31:06.559Z,10.45
2022-11-29T14:33:35.658Z,9.82
2022-11-29T14:36:02.189Z,10.07
2022-11-29T14:38:37.872Z,9.55
2022-11-29T14:41:13.749Z,9.55
2022-11-29T14:43:43.271Z,9.38
2022-11-29T14:46:15.693Z,10.55
2022-11-29T14:48:47.100Z,9.30
2022-11-29T14:51:18.167Z,9.35
2022-11-29T14:53:45.778Z,10.35
2022-11-29T14:56:30.616Z,10.55
2022-11-29T14:59:15.940Z,9.77
2022-11-29T15:01:43.885Z,8.77
2022-11-29T15:04:11.350Z,9.45
2022-11-29T15:06:44.381Z,9.05
2022-11-29T15:09:19.561Z,9.77
2022-11-29T15:11:56.220Z,10.48
2022-11-29T15:14:39.357Z,10.43
2022-11-29T15:17:12.524Z,9.90
2022-11-29T15:20:02.129Z,9.38
2022-11-29T15:22:48.783Z,9.05
2022-11-29T15:25:17.334Z,10.23
2022-11-29T15:27:50.650Z,10.50
2022-11-29T15:30:20.713Z,9.52
2022-11-29T15:32:47.156Z,9.25
2022-11-29T15:35:18.418Z,9.20
2022-11-29T15:37:45.827Z,8.77
2022-11-29T15:40:14.214Z,8.88
2022-11-29T15:42:43.349Z,9.77
2022-11-29T15:45:27.966Z,8.98
2022-11-29T15:47:54.637Z,9.38
2022-11-29T15:50:29.337Z,9.60
2022-11-29T15:52:58.550Z,10.18
2022-11-29T15:55:25.150Z,11.98
2022-11-29T15:57:52.407Z,9.98
2022-11-29T16:00:20.313Z,10.40
2022-11-29T16:02:52.427Z,10.40
2022-11-29T16:05:23.289Z,11.88
2022-11-29T16:07:51.576Z,13.18
2022-11-29T16:10:22.820Z,11.93
2022-11-29T16:12:56.445Z,11.35
2022-11-29T16:15:32.992Z,12.18
2022-11-29T16:18:10.552Z,10.35
2022-11-29T16:20:36.948Z,9.95
2022-11-29T16:23:13.421Z,10.82
2022-11-29T16:28:10.822Z,10.57
2022-11-29T16:30:40.752Z,9.88
2022-11-29T16:33:07.132Z,10.90
2022-11-29T16:35:34.533Z,9.80
2022-11-29T16:38:03.395Z,10.02
2022-11-29T16:40:30.763Z,9.23
2022-11-29T16:43:03.227Z,8.95
2022-11-29T16:45:30.992Z,10.30
2022-11-29T16:47:59.412Z,9.75
2022-11-29T16:50:27.592Z,9.13
2022-11-29T16:52:56.864Z,10.07
2022-11-29T16:55:23.454Z,9.82
2022-11-29T16:57:49.854Z,9.75
2022-11-29T17:00:32.436Z,9.68
2022-11-29T17:02:59.093Z,9.63
2022-11-29T17:05:25.793Z,9.75
2022-11-29T17:07:52.540Z,9.40
2022-11-29T17:10:20.898Z,9.57
2022-11-29T17:13:05.011Z,9.68
2022-11-29T17:15:31.451Z,9.18
2022-11-29T17:17:57.773Z,9.23
2022-11-29T17:20:24.056Z,9.30
2022-11-29T17:22:50.436Z,8.60
2022-11-29T17:25:16.751Z,9.02
2022-11-29T17:27:43.044Z,9.27
2022-11-29T17:30:11.305Z,8.25
2022-11-29T17:32:38.226Z,9.35
2022-11-29T17:35:04.861Z,8.82
2022-11-29T17:37:31.115Z,8.55
2022-11-29T17:39:57.417Z,8.82
2022-11-29T17:42:23.889Z,8.05
2022-11-29T17:44:50.132Z,9.63
2022-11-29T17:47:16.387Z,8.43
2022-11-29T17:49:42.766Z,8.35
2022-11-29T17:52:09.139Z,7.72
2022-11-29T17:54:35.999Z,8.25
2022-11-29T17:57:03.798Z,8.80
2022-11-29T17:59:30.126Z,8.80
2022-11-29T18:01:56.502Z,7.80
2022-11-29T18:04:22.932Z,8.65
2022-11-29T18:06:51.935Z,8.48
2022-11-29T18:09:19.389Z,8.70
2022-11-29T18:11:49.063Z,7.82
2022-11-29T18:14:17.407Z,6.70
2022-11-29T18:16:45.320Z,7.53
2022-11-29T18:19:13.049Z,8.55
2022-11-29T18:21:39.766Z,7.70
2022-11-29T18:24:06.662Z,8.48
2022-11-29T18:26:33.565Z,7.72
2022-11-29T18:29:00.399Z,8.60
2022-11-29T18:31:30.932Z,7.43
2022-11-29T18:33:58.946Z,7.85
2022-11-29T18:36:26.611Z,7.90
2022-11-29T18:38:57.242Z,8.63
2022-11-29T18:41:23.928Z,8.35
2022-11-29T18:43:55.190Z,7.82
2022-11-29T18:46:21.532Z,8.25
2022-11-29T18:48:47.862Z,7.93
2022-11-29T18:51:15.168Z,9.07
2022-11-29T18:53:42.286Z,8.70
2022-11-29T18:56:09.813Z,8.55
2022-11-29T18:58:36.862Z,9.32
2022-11-29T19:01:04.515Z,9.00
2022-11-29T19:03:33.353Z,8.48
2022-11-29T19:05:59.620Z,9.30
2022-11-29T19:08:25.893Z,8.38
2022-11-29T19:10:52.170Z,9.57
2022-11-29T19:13:18.466Z,10.43
2022-11-29T19:15:50.999Z,11.13
2022-11-29T19:18:17.302Z,10.10
2022-11-29T19:20:43.734Z,9.38
2022-11-29T19:23:10.070Z,11.55
2022-11-29T19:25:36.507Z,9.95
2022-11-29T19:28:02.838Z,10.02
2022-11-29T19:30:29.239Z,10.23
2022-11-29T19:32:55.532Z,9.70
2022-11-29T19:35:21.912Z,10.07
2022-11-29T19:37:48.181Z,11.10
2022-11-29T19:40:14.490Z,9.98
2022-11-29T19:42:40.817Z,10.38
2022-11-29T19:45:19.765Z,10.32
2022-11-29T19:47:46.127Z,11.00
2022-11-29T19:50:12.514Z,10.65
2022-11-29T19:52:38.832Z,10.38
2022-11-29T19:55:05.405Z,10.07
2022-11-29T19:57:31.706Z,10.70
2022-11-29T19:59:58.022Z,9.35
2022-11-29T20:02:24.492Z,9.88
2022-11-29T20:04:51.928Z,9.98
2022-11-29T20:07:18.333Z,10.50
2022-11-29T20:09:45.126Z,10.60
2022-11-29T20:12:11.543Z,11.10
2022-11-29T20:14:37.846Z,10.25
2022-11-29T20:17:04.126Z,10.82
2022-11-29T20:19:30.797Z,11.68
2022-11-29T20:21:57.203Z,14.43
2022-11-29T20:24:23.520Z,13.95
2022-11-29T20:26:49.960Z,13.77
2022-11-29T20:29:16.686Z,12.68
2022-11-29T20:31:50.665Z,14.00
2022-11-29T20:34:18.044Z,13.45
2022-11-29T20:36:52.721Z,15.07
2022-11-29T20:39:37.561Z,13.43
2022-11-29T20:42:13.116Z,13.45
2022-11-29T20:44:42.956Z,13.93
2022-11-29T20:47:16.890Z,13.15
2022-11-29T20:49:43.412Z,12.48
2022-11-29T20:52:28.944Z,12.20
2022-11-29T20:54:55.231Z,11.63
2022-11-29T20:57:21.518Z,12.18
2022-11-29T20:59:48.108Z,11.73
2022-11-29T21:02:14.639Z,12.50
2022-11-29T21:04:40.943Z,9.80
2022-11-29T21:07:07.227Z,11.15
2022-11-29T21:09:33.494Z,11.48
2022-11-29T21:11:59.954Z,10.88
2022-11-29T21:14:26.367Z,11.98
2022-11-29T21:16:52.767Z,11.13
2022-11-29T21:19:20.476Z,11.70
2022-11-29T21:22:01.342Z,11.55
2022-11-29T21:24:33.444Z,11.52
2022-11-29T21:26:59.920Z,10.90
2022-11-29T21:29:26.388Z,10.88
2022-11-29T21:31:53.814Z,10.95
2022-11-29T21:34:20.764Z,11.27
2022-11-29T21:36:57.778Z,10.85
2022-11-29T21:39:26.187Z,11.43
2022-11-29T21:41:52.481Z,9.88
2022-11-29T21:44:18.874Z,10.35
2022-11-29T21:46:45.238Z,10.15
2022-11-29T21:49:11.580Z,10.30
2022-11-29T21:51:37.960Z,10.48
2022-11-29T21:54:04.415Z,10.50
2022-11-29T21:56:30.765Z,10.75
2022-11-29T21:58:57.094Z,9.60
2022-11-29T22:01:23.522Z,9.55
2022-11-29T22:03:52.234Z,10.27
2022-11-29T22:06:20.185Z,9.20
2022-11-29T22:08:47.329Z,9.82
2022-11-29T22:11:15.284Z,9.68
2022-11-29T22:14:01.338Z,9.40
2022-11-29T22:16:30.539Z,9.93
2022-11-29T22:18:57.082Z,10.82
2022-11-29T22:21:23.479Z,9.15
2022-11-29T22:23:49.881Z,8.88
2022-11-29T22:26:16.186Z,8.85
2022-11-29T22:28:42.490Z,9.00
2022-11-29T22:31:09.638Z,8.45
2022-11-29T22:33:35.983Z,8.43
2022-11-29T22:36:06.207Z,8.52
2022-11-29T22:38:33.080Z,8.93
2022-11-29T22:41:00.752Z,9.10
2022-11-29T22:43:27.366Z,10.38
2022-11-29T22:45:53.728Z,9.15
2022-11-29T22:48:20.065Z,8.20
2022-11-29T22:50:46.330Z,9.30
2022-11-29T22:53:12.705Z,8.15
2022-11-29T22:55:39.016Z,7.97
2022-11-29T22:58:05.359Z,9.02
2022-11-29T23:00:32.141Z,11.00
2022-11-29T23:02:58.414Z,8.88
2022-11-29T23:05:28.246Z,9.00
2022-11-29T23:07:58.340Z,9.43
2022-11-29T23:10:24.803Z,9.63
2022-11-29T23:12:51.094Z,9.40
2022-11-29T23:15:17.404Z,10.32
2022-11-29T23:17:43.848Z,10.95
2022-11-29T23:20:10.515Z,11.13
2022-11-29T23:22:39.166Z,11.27
2022-11-29T23:25:06.824Z,9.55
2022-11-29T23:27:33.172Z,10.10
2022-11-29T23:29:59.409Z,10.73
2022-11-29T23:32:25.739Z,10.95
2022-11-29T23:34:52.080Z,9.85
2022-11-29T23:37:18.396Z,9.43
2022-11-29T23:39:44.824Z,10.25
2022-11-29T23:42:11.243Z,9.10
2022-11-29T23:44:37.584Z,11.35
2022-11-29T23:47:03.913Z,11.23
2022-11-29T23:49:30.248Z,11.35
2022-11-29T23:51:56.607Z,11.02
2022-11-29T23:54:23.163Z,10.88
2022-11-29T23:56:49.494Z,10.50
2022-11-29T23:59:15.736Z,9.75
